sensor_id;sensor_type;location;lat;lon;timestamp;temperature;humidity
41142;SHT31;63666;52.284;20.890;2024-02-28T00:00:26;21.84;49.53
41142;SHT31;63666;52.284;20.890;2024-02-28T00:02:54;21.86;49.39
41142;SHT31;63666;52.284;20.890;2024-02-28T00:04:40;21.88;49.01
41142;SHT31;63666;52.284;20.890;2024-02-28T00:06:27;21.88;48.81
41142;SHT31;63666;52.284;20.890;2024-02-28T00:08:15;21.86;48.86
41142;SHT31;63666;52.284;20.890;2024-02-28T00:10:05;21.84;48.91
41142;SHT31;63666;52.284;20.890;2024-02-28T00:11:51;21.83;49.14
41142;SHT31;63666;52.284;20.890;2024-02-28T00:13:36;21.81;49.20
41142;SHT31;63666;52.284;20.890;2024-02-28T00:15:22;21.79;49.24
41142;SHT31;63666;52.284;20.890;2024-02-28T00:17:08;21.80;49.23
41142;SHT31;63666;52.284;20.890;2024-02-28T00:18:55;21.85;48.91
41142;SHT31;63666;52.284;20.890;2024-02-28T00:20:40;21.86;48.67
41142;SHT31;63666;52.284;20.890;2024-02-28T00:22:27;21.81;48.76
41142;SHT31;63666;52.284;20.890;2024-02-28T00:24:12;21.81;48.63
41142;SHT31;63666;52.284;20.890;2024-02-28T00:25:57;21.81;48.69
41142;SHT31;63666;52.284;20.890;2024-02-28T00:27:43;21.81;48.75
41142;SHT31;63666;52.284;20.890;2024-02-28T00:29:29;21.80;48.66
41142;SHT31;63666;52.284;20.890;2024-02-28T00:31:14;21.81;48.72
41142;SHT31;63666;52.284;20.890;2024-02-28T00:32:59;21.77;49.09
41142;SHT31;63666;52.284;20.890;2024-02-28T00:34:44;21.76;49.15
41142;SHT31;63666;52.284;20.890;2024-02-28T00:36:29;21.75;49.09
41142;SHT31;63666;52.284;20.890;2024-02-28T00:38:31;21.68;49.31
41142;SHT31;63666;52.284;20.890;2024-02-28T00:40:17;21.67;49.28
41142;SHT31;63666;52.284;20.890;2024-02-28T00:42:02;21.64;49.53
41142;SHT31;63666;52.284;20.890;2024-02-28T00:43:48;21.54;49.70
41142;SHT31;63666;52.284;20.890;2024-02-28T00:45:33;21.48;49.89
41142;SHT31;63666;52.284;20.890;2024-02-28T00:47:20;21.44;50.09
41142;SHT31;63666;52.284;20.890;2024-02-28T00:49:05;21.39;50.33
41142;SHT31;63666;52.284;20.890;2024-02-28T00:50:51;21.32;50.40
41142;SHT31;63666;52.284;20.890;2024-02-28T00:52:39;21.29;50.49
41142;SHT31;63666;52.284;20.890;2024-02-28T00:54:30;21.26;50.53
41142;SHT31;63666;52.284;20.890;2024-02-28T00:56:22;21.24;50.57
41142;SHT31;63666;52.284;20.890;2024-02-28T00:58:13;21.23;50.70
41142;SHT31;63666;52.284;20.890;2024-02-28T01:00:03;21.19;50.84
41142;SHT31;63666;52.284;20.890;2024-02-28T01:01:51;21.18;50.77
41142;SHT31;63666;52.284;20.890;2024-02-28T01:03:38;21.18;50.67
41142;SHT31;63666;52.284;20.890;2024-02-28T01:05:23;21.16;50.70
41142;SHT31;63666;52.284;20.890;2024-02-28T01:07:10;21.14;50.84
41142;SHT31;63666;52.284;20.890;2024-02-28T01:09:00;21.12;50.93
41142;SHT31;63666;52.284;20.890;2024-02-28T01:10:46;21.10;50.93
41142;SHT31;63666;52.284;20.890;2024-02-28T01:12:33;21.08;50.97
41142;SHT31;63666;52.284;20.890;2024-02-28T01:14:25;21.07;50.99
41142;SHT31;63666;52.284;20.890;2024-02-28T01:16:11;21.05;50.95
41142;SHT31;63666;52.284;20.890;2024-02-28T01:18:02;21.03;51.01
41142;SHT31;63666;52.284;20.890;2024-02-28T01:19:47;21.00;51.04
41142;SHT31;63666;52.284;20.890;2024-02-28T01:21:32;21.00;51.17
41142;SHT31;63666;52.284;20.890;2024-02-28T01:23:17;21.00;51.09
41142;SHT31;63666;52.284;20.890;2024-02-28T01:25:03;21.01;51.08
41142;SHT31;63666;52.284;20.890;2024-02-28T01:26:49;21.01;51.06
41142;SHT31;63666;52.284;20.890;2024-02-28T01:28:36;20.99;51.15
41142;SHT31;63666;52.284;20.890;2024-02-28T01:30:21;20.98;51.14
41142;SHT31;63666;52.284;20.890;2024-02-28T01:32:08;20.98;51.17
41142;SHT31;63666;52.284;20.890;2024-02-28T01:33:55;20.98;51.14
41142;SHT31;63666;52.284;20.890;2024-02-28T01:35:45;20.98;51.14
41142;SHT31;63666;52.284;20.890;2024-02-28T01:37:32;20.97;51.16
41142;SHT31;63666;52.284;20.890;2024-02-28T01:39:18;20.97;51.14
41142;SHT31;63666;52.284;20.890;2024-02-28T01:41:05;20.98;51.17
41142;SHT31;63666;52.284;20.890;2024-02-28T01:42:51;20.97;51.19
41142;SHT31;63666;52.284;20.890;2024-02-28T01:44:37;20.96;51.15
41142;SHT31;63666;52.284;20.890;2024-02-28T01:46:29;20.95;51.20
41142;SHT31;63666;52.284;20.890;2024-02-28T01:48:17;20.91;51.33
41142;SHT31;63666;52.284;20.890;2024-02-28T01:50:04;20.93;51.23
41142;SHT31;63666;52.284;20.890;2024-02-28T01:51:50;20.95;51.19
41142;SHT31;63666;52.284;20.890;2024-02-28T01:53:38;20.93;51.21
41142;SHT31;63666;52.284;20.890;2024-02-28T01:55:23;20.92;51.18
41142;SHT31;63666;52.284;20.890;2024-02-28T01:57:08;20.91;51.24
41142;SHT31;63666;52.284;20.890;2024-02-28T01:58:56;20.91;51.22
41142;SHT31;63666;52.284;20.890;2024-02-28T02:00:43;20.91;51.26
41142;SHT31;63666;52.284;20.890;2024-02-28T02:02:30;20.91;51.26
41142;SHT31;63666;52.284;20.890;2024-02-28T02:04:17;20.92;51.20
41142;SHT31;63666;52.284;20.890;2024-02-28T02:06:07;20.87;51.29
41142;SHT31;63666;52.284;20.890;2024-02-28T02:07:54;20.87;51.29
41142;SHT31;63666;52.284;20.890;2024-02-28T02:09:43;20.87;51.27
41142;SHT31;63666;52.284;20.890;2024-02-28T02:11:28;20.87;51.30
41142;SHT31;63666;52.284;20.890;2024-02-28T02:13:18;20.85;51.27
41142;SHT31;63666;52.284;20.890;2024-02-28T02:15:06;20.85;51.32
41142;SHT31;63666;52.284;20.890;2024-02-28T02:16:51;20.84;51.33
41142;SHT31;63666;52.284;20.890;2024-02-28T02:18:37;20.84;51.33
41142;SHT31;63666;52.284;20.890;2024-02-28T02:20:22;20.83;51.34
41142;SHT31;63666;52.284;20.890;2024-02-28T02:22:09;20.83;51.33
41142;SHT31;63666;52.284;20.890;2024-02-28T02:23:56;20.82;51.34
41142;SHT31;63666;52.284;20.890;2024-02-28T02:25:45;20.83;51.32
41142;SHT31;63666;52.284;20.890;2024-02-28T02:27:30;20.81;51.33
41142;SHT31;63666;52.284;20.890;2024-02-28T02:29:15;20.84;51.28
41142;SHT31;63666;52.284;20.890;2024-02-28T02:31:00;20.82;51.29
41142;SHT31;63666;52.284;20.890;2024-02-28T02:32:46;20.80;51.32
41142;SHT31;63666;52.284;20.890;2024-02-28T02:34:31;20.80;51.36
41142;SHT31;63666;52.284;20.890;2024-02-28T02:36:16;20.79;51.33
41142;SHT31;63666;52.284;20.890;2024-02-28T02:38:01;20.80;51.30
41142;SHT31;63666;52.284;20.890;2024-02-28T02:39:47;20.81;51.31
41142;SHT31;63666;52.284;20.890;2024-02-28T02:41:33;20.80;51.33
41142;SHT31;63666;52.284;20.890;2024-02-28T02:43:19;20.78;51.31
41142;SHT31;63666;52.284;20.890;2024-02-28T02:45:05;20.77;51.35
41142;SHT31;63666;52.284;20.890;2024-02-28T02:46:51;20.77;51.34
41142;SHT31;63666;52.284;20.890;2024-02-28T02:48:36;20.77;51.37
41142;SHT31;63666;52.284;20.890;2024-02-28T02:50:22;20.77;51.34
41142;SHT31;63666;52.284;20.890;2024-02-28T02:52:09;20.76;51.40
41142;SHT31;63666;52.284;20.890;2024-02-28T02:53:55;20.76;51.48
41142;SHT31;63666;52.284;20.890;2024-02-28T02:55:40;20.76;51.46
41142;SHT31;63666;52.284;20.890;2024-02-28T02:57:25;20.74;51.50
41142;SHT31;63666;52.284;20.890;2024-02-28T02:59:11;20.74;51.47
41142;SHT31;63666;52.284;20.890;2024-02-28T03:00:56;20.75;51.55
41142;SHT31;63666;52.284;20.890;2024-02-28T03:02:42;20.75;51.54
41142;SHT31;63666;52.284;20.890;2024-02-28T03:04:35;20.74;51.61
41142;SHT31;63666;52.284;20.890;2024-02-28T03:06:23;20.74;51.69
41142;SHT31;63666;52.284;20.890;2024-02-28T03:08:08;20.73;51.63
41142;SHT31;63666;52.284;20.890;2024-02-28T03:09:53;20.75;51.61
41142;SHT31;63666;52.284;20.890;2024-02-28T03:11:40;20.74;51.60
41142;SHT31;63666;52.284;20.890;2024-02-28T03:13:25;20.73;51.77
41142;SHT31;63666;52.284;20.890;2024-02-28T03:15:10;20.71;51.79
41142;SHT31;63666;52.284;20.890;2024-02-28T03:17:00;20.72;51.76
41142;SHT31;63666;52.284;20.890;2024-02-28T03:18:46;20.71;51.80
41142;SHT31;63666;52.284;20.890;2024-02-28T03:20:31;20.71;51.82
41142;SHT31;63666;52.284;20.890;2024-02-28T03:22:20;20.71;51.80
41142;SHT31;63666;52.284;20.890;2024-02-28T03:24:06;20.69;51.83
41142;SHT31;63666;52.284;20.890;2024-02-28T03:25:51;20.70;51.80
41142;SHT31;63666;52.284;20.890;2024-02-28T03:27:36;20.68;51.92
41142;SHT31;63666;52.284;20.890;2024-02-28T03:29:23;20.71;51.83
41142;SHT31;63666;52.284;20.890;2024-02-28T03:31:08;20.71;51.82
41142;SHT31;63666;52.284;20.890;2024-02-28T03:32:57;20.69;51.83
41142;SHT31;63666;52.284;20.890;2024-02-28T03:34:45;20.69;51.87
41142;SHT31;63666;52.284;20.890;2024-02-28T03:36:30;20.67;51.88
41142;SHT31;63666;52.284;20.890;2024-02-28T03:38:17;20.68;51.86
41142;SHT31;63666;52.284;20.890;2024-02-28T03:40:03;20.68;51.87
41142;SHT31;63666;52.284;20.890;2024-02-28T03:41:50;20.70;51.86
41142;SHT31;63666;52.284;20.890;2024-02-28T03:43:35;20.68;51.90
41142;SHT31;63666;52.284;20.890;2024-02-28T03:45:20;20.67;51.94
41142;SHT31;63666;52.284;20.890;2024-02-28T03:47:06;20.67;51.92
41142;SHT31;63666;52.284;20.890;2024-02-28T03:48:55;20.66;51.91
41142;SHT31;63666;52.284;20.890;2024-02-28T03:50:42;20.65;51.97
41142;SHT31;63666;52.284;20.890;2024-02-28T03:52:28;20.64;52.05
41142;SHT31;63666;52.284;20.890;2024-02-28T03:54:13;20.63;52.03
41142;SHT31;63666;52.284;20.890;2024-02-28T03:55:58;20.64;52.02
41142;SHT31;63666;52.284;20.890;2024-02-28T03:57:43;20.66;52.03
41142;SHT31;63666;52.284;20.890;2024-02-28T03:59:33;20.65;51.99
41142;SHT31;63666;52.284;20.890;2024-02-28T04:01:18;20.64;51.95
41142;SHT31;63666;52.284;20.890;2024-02-28T04:03:08;20.64;51.97
41142;SHT31;63666;52.284;20.890;2024-02-28T04:04:58;20.64;51.99
41142;SHT31;63666;52.284;20.890;2024-02-28T04:06:44;20.62;51.97
41142;SHT31;63666;52.284;20.890;2024-02-28T04:08:30;20.62;52.04
41142;SHT31;63666;52.284;20.890;2024-02-28T04:10:15;20.64;52.02
41142;SHT31;63666;52.284;20.890;2024-02-28T04:12:01;20.64;51.93
41142;SHT31;63666;52.284;20.890;2024-02-28T04:13:46;20.63;52.05
41142;SHT31;63666;52.284;20.890;2024-02-28T04:15:32;20.63;52.00
41142;SHT31;63666;52.284;20.890;2024-02-28T04:17:20;20.61;52.00
41142;SHT31;63666;52.284;20.890;2024-02-28T04:19:06;20.60;52.06
41142;SHT31;63666;52.284;20.890;2024-02-28T04:20:56;20.59;52.01
41142;SHT31;63666;52.284;20.890;2024-02-28T04:22:42;20.61;52.03
41142;SHT31;63666;52.284;20.890;2024-02-28T04:24:29;20.60;52.03
41142;SHT31;63666;52.284;20.890;2024-02-28T04:26:16;20.60;51.99
41142;SHT31;63666;52.284;20.890;2024-02-28T04:28:05;20.59;52.06
41142;SHT31;63666;52.284;20.890;2024-02-28T04:29:54;20.58;52.06
41142;SHT31;63666;52.284;20.890;2024-02-28T04:31:39;20.60;52.03
41142;SHT31;63666;52.284;20.890;2024-02-28T04:33:28;20.59;52.07
41142;SHT31;63666;52.284;20.890;2024-02-28T04:35:16;20.59;52.07
41142;SHT31;63666;52.284;20.890;2024-02-28T04:37:04;20.57;52.13
41142;SHT31;63666;52.284;20.890;2024-02-28T04:38:55;20.58;52.09
41142;SHT31;63666;52.284;20.890;2024-02-28T04:40:42;20.58;52.09
41142;SHT31;63666;52.284;20.890;2024-02-28T04:42:29;20.57;52.10
41142;SHT31;63666;52.284;20.890;2024-02-28T04:44:14;20.57;52.15
41142;SHT31;63666;52.284;20.890;2024-02-28T04:45:59;20.57;52.19
41142;SHT31;63666;52.284;20.890;2024-02-28T04:47:49;20.57;52.15
41142;SHT31;63666;52.284;20.890;2024-02-28T04:49:37;20.55;52.23
41142;SHT31;63666;52.284;20.890;2024-02-28T04:51:28;20.53;52.25
41142;SHT31;63666;52.284;20.890;2024-02-28T04:53:16;20.50;52.38
41142;SHT31;63666;52.284;20.890;2024-02-28T04:55:04;20.53;52.30
41142;SHT31;63666;52.284;20.890;2024-02-28T04:56:50;20.53;52.30
41142;SHT31;63666;52.284;20.890;2024-02-28T04:58:35;20.52;52.30
41142;SHT31;63666;52.284;20.890;2024-02-28T05:00:24;20.52;52.30
41142;SHT31;63666;52.284;20.890;2024-02-28T05:02:09;20.53;52.28
41142;SHT31;63666;52.284;20.890;2024-02-28T05:03:57;20.53;52.30
41142;SHT31;63666;52.284;20.890;2024-02-28T05:05:43;20.51;52.33
41142;SHT31;63666;52.284;20.890;2024-02-28T05:07:28;20.50;52.35
41142;SHT31;63666;52.284;20.890;2024-02-28T05:09:19;20.51;52.34
41142;SHT31;63666;52.284;20.890;2024-02-28T05:11:06;20.50;52.39
41142;SHT31;63666;52.284;20.890;2024-02-28T05:12:52;20.50;52.32
41142;SHT31;63666;52.284;20.890;2024-02-28T05:14:39;20.50;52.36
41142;SHT31;63666;52.284;20.890;2024-02-28T05:16:24;20.52;52.28
41142;SHT31;63666;52.284;20.890;2024-02-28T05:18:14;20.51;52.34
41142;SHT31;63666;52.284;20.890;2024-02-28T05:20:04;20.50;52.34
41142;SHT31;63666;52.284;20.890;2024-02-28T05:21:54;20.49;52.39
41142;SHT31;63666;52.284;20.890;2024-02-28T05:23:43;20.49;52.31
41142;SHT31;63666;52.284;20.890;2024-02-28T05:25:33;20.49;52.34
41142;SHT31;63666;52.284;20.890;2024-02-28T05:27:21;20.48;52.34
41142;SHT31;63666;52.284;20.890;2024-02-28T05:29:06;20.48;52.33
41142;SHT31;63666;52.284;20.890;2024-02-28T05:30:52;20.49;52.31
41142;SHT31;63666;52.284;20.890;2024-02-28T05:32:37;20.46;52.38
41142;SHT31;63666;52.284;20.890;2024-02-28T05:34:24;20.47;52.33
41142;SHT31;63666;52.284;20.890;2024-02-28T05:36:09;20.48;52.37
41142;SHT31;63666;52.284;20.890;2024-02-28T05:37:55;20.49;52.31
41142;SHT31;63666;52.284;20.890;2024-02-28T05:39:42;20.48;52.31
41142;SHT31;63666;52.284;20.890;2024-02-28T05:41:29;20.47;52.35
41142;SHT31;63666;52.284;20.890;2024-02-28T05:43:19;20.47;52.29
41142;SHT31;63666;52.284;20.890;2024-02-28T05:45:06;20.49;52.30
41142;SHT31;63666;52.284;20.890;2024-02-28T05:46:53;20.49;52.29
41142;SHT31;63666;52.284;20.890;2024-02-28T05:48:40;20.49;52.27
41142;SHT31;63666;52.284;20.890;2024-02-28T05:50:31;20.51;52.21
41142;SHT31;63666;52.284;20.890;2024-02-28T05:52:19;20.50;52.20
41142;SHT31;63666;52.284;20.890;2024-02-28T05:54:11;20.49;52.21
41142;SHT31;63666;52.284;20.890;2024-02-28T05:55:56;20.48;52.23
41142;SHT31;63666;52.284;20.890;2024-02-28T05:57:45;20.50;52.21
41142;SHT31;63666;52.284;20.890;2024-02-28T05:59:30;20.50;52.20
41142;SHT31;63666;52.284;20.890;2024-02-28T06:01:20;20.50;52.20
41142;SHT31;63666;52.284;20.890;2024-02-28T06:03:07;20.50;52.20
41142;SHT31;63666;52.284;20.890;2024-02-28T06:04:54;20.51;52.13
41142;SHT31;63666;52.284;20.890;2024-02-28T06:06:41;20.49;52.19
41142;SHT31;63666;52.284;20.890;2024-02-28T06:08:30;20.48;52.20
41142;SHT31;63666;52.284;20.890;2024-02-28T06:10:18;20.49;52.18
41142;SHT31;63666;52.284;20.890;2024-02-28T06:12:10;20.50;52.14
41142;SHT31;63666;52.284;20.890;2024-02-28T06:14:01;20.50;52.11
41142;SHT31;63666;52.284;20.890;2024-02-28T06:15:49;20.49;52.19
41142;SHT31;63666;52.284;20.890;2024-02-28T06:17:37;20.50;52.16
41142;SHT31;63666;52.284;20.890;2024-02-28T06:19:22;20.52;52.10
41142;SHT31;63666;52.284;20.890;2024-02-28T06:21:11;20.51;52.14
41142;SHT31;63666;52.284;20.890;2024-02-28T06:22:56;20.50;52.13
41142;SHT31;63666;52.284;20.890;2024-02-28T06:24:58;20.49;52.16
41142;SHT31;63666;52.284;20.890;2024-02-28T06:26:43;20.50;52.10
41142;SHT31;63666;52.284;20.890;2024-02-28T06:28:32;20.49;52.10
41142;SHT31;63666;52.284;20.890;2024-02-28T06:30:20;20.49;52.11
41142;SHT31;63666;52.284;20.890;2024-02-28T06:32:05;20.51;52.07
41142;SHT31;63666;52.284;20.890;2024-02-28T06:33:52;20.51;52.04
41142;SHT31;63666;52.284;20.890;2024-02-28T06:35:38;20.52;52.03
41142;SHT31;63666;52.284;20.890;2024-02-28T06:37:23;20.52;52.00
41142;SHT31;63666;52.284;20.890;2024-02-28T06:39:15;20.52;51.99
41142;SHT31;63666;52.284;20.890;2024-02-28T06:41:05;20.52;51.99
41142;SHT31;63666;52.284;20.890;2024-02-28T06:42:50;20.52;51.97
41142;SHT31;63666;52.284;20.890;2024-02-28T06:44:36;20.53;51.91
41142;SHT31;63666;52.284;20.890;2024-02-28T06:46:22;20.55;51.85
41142;SHT31;63666;52.284;20.890;2024-02-28T06:48:07;20.55;51.84
41142;SHT31;63666;52.284;20.890;2024-02-28T06:49:52;20.56;51.85
41142;SHT31;63666;52.284;20.890;2024-02-28T06:51:37;20.54;51.93
41142;SHT31;63666;52.284;20.890;2024-02-28T06:53:27;20.53;52.03
41142;SHT31;63666;52.284;20.890;2024-02-28T06:55:12;20.53;52.05
41142;SHT31;63666;52.284;20.890;2024-02-28T06:57:00;20.56;51.93
41142;SHT31;63666;52.284;20.890;2024-02-28T06:58:46;20.56;51.92
41142;SHT31;63666;52.284;20.890;2024-02-28T07:00:31;20.58;51.89
41142;SHT31;63666;52.284;20.890;2024-02-28T07:02:17;20.57;51.95
41142;SHT31;63666;52.284;20.890;2024-02-28T07:04:04;20.61;52.06
41142;SHT31;63666;52.284;20.890;2024-02-28T07:05:53;20.65;52.37
41142;SHT31;63666;52.284;20.890;2024-02-28T07:07:43;20.68;52.67
41142;SHT31;63666;52.284;20.890;2024-02-28T07:09:32;20.69;52.83
41142;SHT31;63666;52.284;20.890;2024-02-28T07:11:25;20.73;52.97
41142;SHT31;63666;52.284;20.890;2024-02-28T07:13:11;20.78;53.16
41142;SHT31;63666;52.284;20.890;2024-02-28T07:15:05;20.78;53.13
41142;SHT31;63666;52.284;20.890;2024-02-28T07:16:51;20.78;52.99
41142;SHT31;63666;52.284;20.890;2024-02-28T07:18:36;20.79;52.90
41142;SHT31;63666;52.284;20.890;2024-02-28T07:20:21;20.81;52.86
41142;SHT31;63666;52.284;20.890;2024-02-28T07:22:06;20.84;52.80
41142;SHT31;63666;52.284;20.890;2024-02-28T07:23:51;20.90;52.64
41142;SHT31;63666;52.284;20.890;2024-02-28T07:25:36;20.96;52.45
41142;SHT31;63666;52.284;20.890;2024-02-28T07:27:23;21.01;52.30
41142;SHT31;63666;52.284;20.890;2024-02-28T07:29:07;21.09;52.19
41142;SHT31;63666;52.284;20.890;2024-02-28T07:30:53;21.12;52.05
41142;SHT31;63666;52.284;20.890;2024-02-28T07:32:38;21.15;51.94
41142;SHT31;63666;52.284;20.890;2024-02-28T07:34:23;21.19;51.90
41142;SHT31;63666;52.284;20.890;2024-02-28T07:36:10;21.25;51.81
41142;SHT31;63666;52.284;20.890;2024-02-28T07:37:58;21.30;51.71
41142;SHT31;63666;52.284;20.890;2024-02-28T07:39:43;21.35;51.63
41142;SHT31;63666;52.284;20.890;2024-02-28T07:41:28;21.38;51.57
41142;SHT31;63666;52.284;20.890;2024-02-28T07:43:13;21.41;51.55
41142;SHT31;63666;52.284;20.890;2024-02-28T07:44:58;21.46;51.53
41142;SHT31;63666;52.284;20.890;2024-02-28T07:46:44;21.49;51.48
41142;SHT31;63666;52.284;20.890;2024-02-28T07:48:31;21.50;51.41
41142;SHT31;63666;52.284;20.890;2024-02-28T07:50:16;21.53;51.42
41142;SHT31;63666;52.284;20.890;2024-02-28T07:52:02;21.52;51.41
41142;SHT31;63666;52.284;20.890;2024-02-28T07:53:48;21.55;51.38
41142;SHT31;63666;52.284;20.890;2024-02-28T07:55:33;21.58;51.36
41142;SHT31;63666;52.284;20.890;2024-02-28T07:57:19;21.61;51.33
41142;SHT31;63666;52.284;20.890;2024-02-28T07:59:04;21.68;51.50
41142;SHT31;63666;52.284;20.890;2024-02-28T08:00:49;21.74;51.77
41142;SHT31;63666;52.284;20.890;2024-02-28T08:02:34;21.81;52.20
41142;SHT31;63666;52.284;20.890;2024-02-28T08:04:20;21.87;51.90
41142;SHT31;63666;52.284;20.890;2024-02-28T08:06:05;21.91;51.83
41142;SHT31;63666;52.284;20.890;2024-02-28T08:07:50;21.95;51.87
41142;SHT31;63666;52.284;20.890;2024-02-28T08:09:34;21.96;51.47
41142;SHT31;63666;52.284;20.890;2024-02-28T08:11:19;21.96;51.36
41142;SHT31;63666;52.284;20.890;2024-02-28T08:13:05;21.98;51.36
41142;SHT31;63666;52.284;20.890;2024-02-28T08:14:50;22.00;51.05
41142;SHT31;63666;52.284;20.890;2024-02-28T08:16:35;22.04;51.03
41142;SHT31;63666;52.284;20.890;2024-02-28T08:18:19;22.07;50.63
41142;SHT31;63666;52.284;20.890;2024-02-28T08:20:05;22.08;50.50
41142;SHT31;63666;52.284;20.890;2024-02-28T08:21:51;22.07;50.56
41142;SHT31;63666;52.284;20.890;2024-02-28T08:23:36;22.01;50.67
41142;SHT31;63666;52.284;20.890;2024-02-28T08:25:21;22.03;50.54
41142;SHT31;63666;52.284;20.890;2024-02-28T08:27:06;22.01;50.58
41142;SHT31;63666;52.284;20.890;2024-02-28T08:28:54;21.99;50.67
41142;SHT31;63666;52.284;20.890;2024-02-28T08:30:39;22.01;50.58
41142;SHT31;63666;52.284;20.890;2024-02-28T08:32:23;22.02;50.54
41142;SHT31;63666;52.284;20.890;2024-02-28T08:34:10;22.04;50.50
41142;SHT31;63666;52.284;20.890;2024-02-28T08:35:55;22.05;50.50
41142;SHT31;63666;52.284;20.890;2024-02-28T08:37:40;22.10;50.29
41142;SHT31;63666;52.284;20.890;2024-02-28T08:39:24;22.19;50.33
41142;SHT31;63666;52.284;20.890;2024-02-28T08:41:10;22.20;50.13
41142;SHT31;63666;52.284;20.890;2024-02-28T08:42:57;22.16;50.19
41142;SHT31;63666;52.284;20.890;2024-02-28T08:44:44;22.18;50.01
41142;SHT31;63666;52.284;20.890;2024-02-28T08:46:29;22.17;50.00
41142;SHT31;63666;52.284;20.890;2024-02-28T08:48:14;22.17;50.09
41142;SHT31;63666;52.284;20.890;2024-02-28T08:49:59;22.18;50.13
41142;SHT31;63666;52.284;20.890;2024-02-28T08:51:44;22.23;50.07
41142;SHT31;63666;52.284;20.890;2024-02-28T08:53:29;22.32;50.02
41142;SHT31;63666;52.284;20.890;2024-02-28T08:55:16;22.35;49.54
41142;SHT31;63666;52.284;20.890;2024-02-28T08:57:03;22.28;49.77
41142;SHT31;63666;52.284;20.890;2024-02-28T08:58:51;22.37;49.77
41142;SHT31;63666;52.284;20.890;2024-02-28T09:00:39;22.33;49.96
41142;SHT31;63666;52.284;20.890;2024-02-28T09:02:25;22.32;49.77
41142;SHT31;63666;52.284;20.890;2024-02-28T09:04:09;22.30;49.87
41142;SHT31;63666;52.284;20.890;2024-02-28T09:05:57;22.36;49.64
41142;SHT31;63666;52.284;20.890;2024-02-28T09:07:42;22.32;49.48
41142;SHT31;63666;52.284;20.890;2024-02-28T09:09:32;22.24;49.71
41142;SHT31;63666;52.284;20.890;2024-02-28T09:11:18;22.20;49.90
41142;SHT31;63666;52.284;20.890;2024-02-28T09:13:03;22.17;50.05
41142;SHT31;63666;52.284;20.890;2024-02-28T09:14:48;22.19;49.91
41142;SHT31;63666;52.284;20.890;2024-02-28T09:16:38;22.18;49.81
41142;SHT31;63666;52.284;20.890;2024-02-28T09:18:24;22.18;49.88
41142;SHT31;63666;52.284;20.890;2024-02-28T09:20:10;22.19;49.91
41142;SHT31;63666;52.284;20.890;2024-02-28T09:21:55;22.20;49.83
41142;SHT31;63666;52.284;20.890;2024-02-28T09:23:40;22.26;49.57
41142;SHT31;63666;52.284;20.890;2024-02-28T09:25:25;22.25;49.51
41142;SHT31;63666;52.284;20.890;2024-02-28T09:27:10;22.24;49.55
41142;SHT31;63666;52.284;20.890;2024-02-28T09:28:55;22.24;49.46
41142;SHT31;63666;52.284;20.890;2024-02-28T09:30:45;22.30;49.26
41142;SHT31;63666;52.284;20.890;2024-02-28T09:32:33;22.32;49.27
41142;SHT31;63666;52.284;20.890;2024-02-28T09:34:22;22.34;49.23
41142;SHT31;63666;52.284;20.890;2024-02-28T09:36:07;22.26;49.47
41142;SHT31;63666;52.284;20.890;2024-02-28T09:37:52;22.22;49.56
41142;SHT31;63666;52.284;20.890;2024-02-28T09:39:38;22.20;49.50
41142;SHT31;63666;52.284;20.890;2024-02-28T09:41:23;22.21;49.59
41142;SHT31;63666;52.284;20.890;2024-02-28T09:43:12;22.21;49.44
41142;SHT31;63666;52.284;20.890;2024-02-28T09:45:10;22.17;49.54
41142;SHT31;63666;52.284;20.890;2024-02-28T09:46:57;22.17;49.59
41142;SHT31;63666;52.284;20.890;2024-02-28T09:48:42;22.15;49.65
41142;SHT31;63666;52.284;20.890;2024-02-28T09:50:32;22.12;49.77
41142;SHT31;63666;52.284;20.890;2024-02-28T09:52:18;22.10;49.94
41142;SHT31;63666;52.284;20.890;2024-02-28T09:54:05;22.09;50.15
41142;SHT31;63666;52.284;20.890;2024-02-28T09:55:50;22.06;50.10
41142;SHT31;63666;52.284;20.890;2024-02-28T09:57:35;22.04;50.20
41142;SHT31;63666;52.284;20.890;2024-02-28T09:59:21;22.02;50.26
41142;SHT31;63666;52.284;20.890;2024-02-28T10:01:22;22.00;50.33
41142;SHT31;63666;52.284;20.890;2024-02-28T10:03:08;22.01;50.23
41142;SHT31;63666;52.284;20.890;2024-02-28T10:04:55;21.99;50.11
41142;SHT31;63666;52.284;20.890;2024-02-28T10:06:41;21.99;50.05
41142;SHT31;63666;52.284;20.890;2024-02-28T10:08:26;22.00;50.04
41142;SHT31;63666;52.284;20.890;2024-02-28T10:10:13;21.99;49.90
41142;SHT31;63666;52.284;20.890;2024-02-28T10:12:03;22.03;49.63
41142;SHT31;63666;52.284;20.890;2024-02-28T10:13:49;22.01;49.76
41142;SHT31;63666;52.284;20.890;2024-02-28T10:15:35;21.98;49.73
41142;SHT31;63666;52.284;20.890;2024-02-28T10:17:21;21.97;49.87
41142;SHT31;63666;52.284;20.890;2024-02-28T10:19:09;21.98;49.77
41142;SHT31;63666;52.284;20.890;2024-02-28T10:20:54;21.94;49.73
41142;SHT31;63666;52.284;20.890;2024-02-28T10:22:44;21.96;49.83
41142;SHT31;63666;52.284;20.890;2024-02-28T10:24:35;21.94;49.83
41142;SHT31;63666;52.284;20.890;2024-02-28T10:26:20;21.92;50.00
41142;SHT31;63666;52.284;20.890;2024-02-28T10:28:05;21.89;50.19
41142;SHT31;63666;52.284;20.890;2024-02-28T10:29:53;21.84;50.30
41142;SHT31;63666;52.284;20.890;2024-02-28T10:31:39;21.82;50.28
41142;SHT31;63666;52.284;20.890;2024-02-28T10:33:27;21.82;50.30
41142;SHT31;63666;52.284;20.890;2024-02-28T10:35:14;21.81;50.28
41142;SHT31;63666;52.284;20.890;2024-02-28T10:37:07;21.76;50.27
41142;SHT31;63666;52.284;20.890;2024-02-28T10:38:53;21.76;50.26
41142;SHT31;63666;52.284;20.890;2024-02-28T10:40:42;21.79;50.14
41142;SHT31;63666;52.284;20.890;2024-02-28T10:42:30;21.82;50.07
41142;SHT31;63666;52.284;20.890;2024-02-28T10:44:16;21.82;50.10
41142;SHT31;63666;52.284;20.890;2024-02-28T10:46:05;21.80;49.96
41142;SHT31;63666;52.284;20.890;2024-02-28T10:48:18;21.78;49.94
41142;SHT31;63666;52.284;20.890;2024-02-28T10:50:07;21.79;50.04
41142;SHT31;63666;52.284;20.890;2024-02-28T10:51:52;21.81;49.94
41142;SHT31;63666;52.284;20.890;2024-02-28T10:53:41;21.78;49.97
41142;SHT31;63666;52.284;20.890;2024-02-28T10:55:39;21.75;49.96
41142;SHT31;63666;52.284;20.890;2024-02-28T10:57:25;21.74;49.96
41142;SHT31;63666;52.284;20.890;2024-02-28T10:59:16;21.71;49.90
41142;SHT31;63666;52.284;20.890;2024-02-28T11:01:07;21.66;49.94
41142;SHT31;63666;52.284;20.890;2024-02-28T11:02:55;21.66;49.99
41142;SHT31;63666;52.284;20.890;2024-02-28T11:04:45;21.65;49.93